createdAt,value
2022-12-03T00:00:53.753Z,0.92
2022-12-03T00:03:20.710Z,0.93
2022-12-03T00:05:49.152Z,0.87
2022-12-03T00:08:16.009Z,0.95
2022-12-03T00:10:42.538Z,0.81
2022-12-03T00:13:09.813Z,0.85
2022-12-03T00:15:36.272Z,0.81
2022-12-03T00:18:02.735Z,0.78
2022-12-03T00:20:29.130Z,0.81
2022-12-03T00:22:55.667Z,0.83
2022-12-03T00:25:22.040Z,0.75
2022-12-03T00:27:48.449Z,0.75
2022-12-03T00:30:14.980Z,0.73
2022-12-03T00:32:41.456Z,0.66
2022-12-03T00:35:08.785Z,0.72
2022-12-03T00:37:35.336Z,0.65
2022-12-03T00:40:04.383Z,0.64
2022-12-03T00:42:30.975Z,0.66
2022-12-03T00:44:57.273Z,0.70
2022-12-03T00:47:23.820Z,0.66
2022-12-03T00:49:50.353Z,0.66
2022-12-03T00:52:16.810Z,0.65
2022-12-03T00:54:43.200Z,0.68
2022-12-03T00:57:09.647Z,0.63
2022-12-03T00:59:36.219Z,0.62
2022-12-03T01:02:02.625Z,0.65
2022-12-03T01:04:29.542Z,0.63
2022-12-03T01:06:55.999Z,0.57
2022-12-03T01:09:22.380Z,0.53
2022-12-03T01:11:48.768Z,0.52
2022-12-03T01:14:17.404Z,0.50
2022-12-03T01:16:44.158Z,0.47
2022-12-03T01:19:11.271Z,0.47
2022-12-03T01:21:37.859Z,0.48
2022-12-03T01:24:04.816Z,0.48
2022-12-03T01:26:31.246Z,0.42
2022-12-03T01:28:57.671Z,0.37
2022-12-03T01:31:42.478Z,0.41
2022-12-03T01:34:08.960Z,0.23
2022-12-03T01:36:35.415Z,0.28
2022-12-03T01:39:03.578Z,0.25
2022-12-03T01:41:31.252Z,0.26
2022-12-03T01:43:58.611Z,0.04
2022-12-03T01:46:30.469Z,0.06
2022-12-03T01:48:56.997Z,0.06
2022-12-03T01:51:23.653Z,0.14
2022-12-03T01:53:50.732Z,0.12
2022-12-03T01:56:18.558Z,0.03
2022-12-03T01:58:46.468Z,0.07
2022-12-03T02:01:15.591Z,0.03
2022-12-03T02:03:42.619Z,0.03
2022-12-03T02:06:17.936Z,0.05
2022-12-03T02:08:45.460Z,-0.02
2022-12-03T02:11:24.567Z,0.08
2022-12-03T02:13:54.777Z,0.07
2022-12-03T02:16:21.745Z,0.02
2022-12-03T02:18:48.662Z,0.02
2022-12-03T02:21:38.971Z,0.03
2022-12-03T02:24:26.983Z,-0.04
2022-12-03T02:26:53.447Z,-0.02
2022-12-03T02:29:19.923Z,-0.10
2022-12-03T02:31:46.614Z,-0.09
2022-12-03T02:34:43.228Z,-0.08
2022-12-03T02:37:14.053Z,-0.09
2022-12-03T02:39:44.042Z,-0.11
2022-12-03T02:42:29.691Z,-0.21
2022-12-03T02:45:04.885Z,-0.17
2022-12-03T02:47:35.175Z,-0.17
2022-12-03T02:50:02.518Z,-0.23
2022-12-03T02:52:29.248Z,-0.25
2022-12-03T02:54:56.031Z,-0.18
2022-12-03T02:57:22.950Z,-0.21
2022-12-03T02:59:49.456Z,-0.25
2022-12-03T03:02:16.363Z,-0.24
2022-12-03T03:04:43.875Z,-0.26
2022-12-03T03:07:10.486Z,-0.24
2022-12-03T03:09:36.961Z,-0.26
2022-12-03T03:12:03.584Z,-0.26
2022-12-03T03:14:29.907Z,-0.15
2022-12-03T03:16:57.913Z,-0.08
2022-12-03T03:19:28.569Z,-0.16
2022-12-03T03:21:55.000Z,-0.18
2022-12-03T03:24:22.137Z,-0.09
2022-12-03T03:26:49.536Z,-0.13
2022-12-03T03:29:16.193Z,-0.22
2022-12-03T03:31:43.777Z,-0.14
2022-12-03T03:34:10.483Z,-0.20
2022-12-03T03:36:37.518Z,-0.15
2022-12-03T03:39:05.703Z,-0.11
2022-12-03T03:41:33.844Z,-0.08
2022-12-03T03:44:00.454Z,-0.16
2022-12-03T03:46:27.621Z,-0.12
2022-12-03T03:48:54.393Z,-0.19
2022-12-03T03:51:21.407Z,-0.11
2022-12-03T03:53:49.857Z,-0.07
2022-12-03T03:56:18.883Z,-0.06
2022-12-03T03:58:45.319Z,-0.04
2022-12-03T04:01:13.863Z,-0.02
2022-12-03T04:03:40.874Z,0.02
2022-12-03T04:06:08.184Z,0.06
2022-12-03T04:08:34.619Z,0.10
2022-12-03T04:11:19.623Z,0.09
2022-12-03T04:13:46.046Z,0.08
2022-12-03T04:16:12.730Z,0.09
2022-12-03T04:18:45.009Z,0.09
2022-12-03T04:21:38.841Z,0.11
2022-12-03T04:24:06.655Z,0.13
2022-12-03T04:26:51.723Z,0.09
2022-12-03T04:29:18.884Z,0.07
2022-12-03T04:32:04.091Z,0.12
2022-12-03T04:34:50.025Z,0.04
2022-12-03T04:37:19.034Z,0.16
2022-12-03T04:39:45.510Z,0.05
2022-12-03T04:42:11.935Z,0.03
2022-12-03T04:44:38.364Z,0.04
2022-12-03T04:47:13.604Z,0.06
2022-12-03T04:49:42.947Z,0.08
2022-12-03T04:52:11.411Z,0.02
2022-12-03T04:54:39.092Z,0.01
2022-12-03T04:57:06.092Z,0.02
2022-12-03T04:59:32.822Z,-0.02
2022-12-03T05:01:59.290Z,0.04
2022-12-03T05:04:26.266Z,0.04
2022-12-03T05:06:52.678Z,0.01
2022-12-03T05:09:19.456Z,0.03
2022-12-03T05:11:45.889Z,0.09
2022-12-03T05:14:12.392Z,0.02
2022-12-03T05:16:39.763Z,-0.01
2022-12-03T05:19:07.828Z,-0.09
2022-12-03T05:21:34.441Z,-0.25
2022-12-03T05:24:00.913Z,-0.15
2022-12-03T05:26:27.303Z,-0.18
2022-12-03T05:28:53.707Z,-0.21
2022-12-03T05:31:20.228Z,-0.20
2022-12-03T05:33:46.687Z,-0.15
2022-12-03T05:36:13.341Z,-0.16
2022-12-03T05:38:39.693Z,-0.08
2022-12-03T05:41:26.275Z,-0.11
2022-12-03T05:43:52.717Z,-0.11
2022-12-03T05:46:19.295Z,-0.03
2022-12-03T05:48:45.833Z,-0.11
2022-12-03T05:51:12.207Z,-0.14
2022-12-03T05:53:38.671Z,-0.08
2022-12-03T05:56:05.744Z,-0.04
2022-12-03T05:58:32.259Z,-0.08
2022-12-03T06:00:58.635Z,-0.01
2022-12-03T06:03:25.410Z,0.04
2022-12-03T06:05:51.854Z,-0.02
2022-12-03T06:08:18.340Z,0.00
2022-12-03T06:10:44.750Z,0.05
2022-12-03T06:13:11.143Z,0.02
2022-12-03T06:15:43.446Z,0.02
2022-12-03T06:18:10.304Z,0.05
2022-12-03T06:20:36.697Z,0.04
2022-12-03T06:23:03.109Z,0.07
2022-12-03T06:25:29.495Z,0.02
2022-12-03T06:27:55.906Z,0.03
2022-12-03T06:30:22.285Z,0.00
2022-12-03T06:32:48.689Z,-0.02
2022-12-03T06:35:15.172Z,0.06
2022-12-03T06:37:41.535Z,0.09
2022-12-03T06:40:08.738Z,0.08
2022-12-03T06:42:35.176Z,0.10
2022-12-03T06:45:01.681Z,0.10
2022-12-03T06:47:29.539Z,0.10
2022-12-03T06:49:55.923Z,0.13
2022-12-03T06:52:22.428Z,0.13
2022-12-03T06:54:48.816Z,0.19
2022-12-03T06:57:15.301Z,0.24
2022-12-03T06:59:42.498Z,0.21
2022-12-03T07:02:10.154Z,0.21
2022-12-03T07:04:36.593Z,0.26
2022-12-03T07:07:03.044Z,0.19
2022-12-03T07:09:29.695Z,0.20
2022-12-03T07:11:57.006Z,0.24
2022-12-03T07:14:23.457Z,0.17
2022-12-03T07:16:49.907Z,0.18
2022-12-03T07:19:16.632Z,0.19
2022-12-03T07:21:43.086Z,0.10
2022-12-03T07:24:09.696Z,0.10
2022-12-03T07:26:36.327Z,0.18
2022-12-03T07:29:02.773Z,0.11
2022-12-03T07:31:29.367Z,0.11
2022-12-03T07:33:56.118Z,0.17
2022-12-03T07:36:23.823Z,0.25
2022-12-03T07:38:50.211Z,0.26
2022-12-03T07:41:16.613Z,0.25
2022-12-03T07:43:44.671Z,0.23
2022-12-03T07:46:11.211Z,0.22
2022-12-03T07:48:38.994Z,0.26
2022-12-03T07:51:05.528Z,0.38
2022-12-03T07:53:31.917Z,0.42
2022-12-03T07:55:58.395Z,0.48
2022-12-03T07:58:24.850Z,0.46
2022-12-03T08:00:51.374Z,0.54
2022-12-03T08:03:17.809Z,0.51
2022-12-03T08:05:45.601Z,0.49
2022-12-03T08:08:12.294Z,0.49
2022-12-03T08:10:39.161Z,0.52
2022-12-03T08:13:12.968Z,0.49
2022-12-03T08:15:39.869Z,0.49
2022-12-03T08:18:16.644Z,0.62
2022-12-03T08:20:46.095Z,0.62
2022-12-03T08:23:24.359Z,0.72
2022-12-03T08:25:52.619Z,0.70
2022-12-03T08:28:25.656Z,0.75
2022-12-03T08:31:07.232Z,0.71
2022-12-03T08:33:36.637Z,0.73
2022-12-03T08:36:25.303Z,0.79
2022-12-03T08:39:38.008Z,0.94
2022-12-03T08:42:26.835Z,0.88
2022-12-03T08:44:54.722Z,0.87
2022-12-03T08:47:23.530Z,0.88
2022-12-03T08:49:55.903Z,0.95
2022-12-03T08:52:26.708Z,1.01
2022-12-03T08:54:55.601Z,1.01
2022-12-03T08:57:32.004Z,1.07
2022-12-03T09:00:17.307Z,1.00
2022-12-03T09:02:51.280Z,0.82
2022-12-03T09:05:25.888Z,0.50
2022-12-03T09:07:52.412Z,0.39
2022-12-03T09:10:18.821Z,0.47
2022-12-03T09:12:45.248Z,0.51
2022-12-03T09:15:11.737Z,0.83
2022-12-03T09:17:38.814Z,0.80
2022-12-03T09:20:06.513Z,0.70
2022-12-03T09:22:33.072Z,0.80
2022-12-03T09:24:59.676Z,0.94
2022-12-03T09:27:26.061Z,0.99
2022-12-03T09:29:52.441Z,1.10
2022-12-03T09:32:19.169Z,1.10
2022-12-03T09:34:45.829Z,1.15
2022-12-03T09:37:12.159Z,1.33
2022-12-03T09:39:38.546Z,1.30
2022-12-03T09:42:05.368Z,1.08
2022-12-03T09:44:35.393Z,1.11
2022-12-03T09:47:04.095Z,1.01
2022-12-03T09:49:32.566Z,1.42
2022-12-03T09:52:01.715Z,1.50
2022-12-03T09:54:29.788Z,1.72
2022-12-03T09:57:00.328Z,1.57
2022-12-03T09:59:31.652Z,1.69
2022-12-03T10:01:58.498Z,1.81
2022-12-03T10:04:25.049Z,2.18
2022-12-03T10:06:51.507Z,2.21
2022-12-03T10:09:24.374Z,2.03
2022-12-03T10:11:51.290Z,2.21
2022-12-03T10:14:19.680Z,2.11
2022-12-03T10:16:46.458Z,1.96
2022-12-03T10:19:21.720Z,1.96
2022-12-03T10:21:48.468Z,1.76
2022-12-03T10:24:32.079Z,1.61
2022-12-03T10:27:01.401Z,1.30
2022-12-03T10:29:34.089Z,1.60
2022-12-03T10:32:12.698Z,1.66
2022-12-03T10:34:40.911Z,1.55
2022-12-03T10:37:21.871Z,1.44
2022-12-03T10:39:57.644Z,1.59
2022-12-03T10:42:29.961Z,1.36
2022-12-03T10:45:15.342Z,1.35
2022-12-03T10:47:43.566Z,1.35
2022-12-03T10:50:20.026Z,1.45
2022-12-03T10:52:47.858Z,1.32
2022-12-03T10:55:15.822Z,1.43
2022-12-03T10:57:46.162Z,1.41
2022-12-03T11:00:20.369Z,1.39
2022-12-03T11:02:56.149Z,1.61
2022-12-03T11:05:29.458Z,1.58
2022-12-03T11:07:56.453Z,1.33
2022-12-03T11:10:23.466Z,1.36
2022-12-03T11:13:34.079Z,1.79
2022-12-03T11:16:03.033Z,1.84
2022-12-03T11:18:35.716Z,1.92
2022-12-03T11:21:14.875Z,1.97
2022-12-03T11:23:44.524Z,2.03
2022-12-03T11:26:37.231Z,1.95
2022-12-03T11:29:05.004Z,1.94
2022-12-03T11:31:43.359Z,1.99
2022-12-03T11:34:17.241Z,1.86
2022-12-03T11:37:12.988Z,1.83
2022-12-03T11:39:52.457Z,1.86
2022-12-03T11:42:28.613Z,1.79
2022-12-03T11:45:04.578Z,1.83
2022-12-03T11:47:41.496Z,1.74
2022-12-03T11:50:21.635Z,1.81
2022-12-03T11:52:53.085Z,1.70
2022-12-03T11:55:28.807Z,1.55
2022-12-03T11:58:00.382Z,1.56
2022-12-03T12:00:27.182Z,1.55
2022-12-03T12:02:55.633Z,1.49
2022-12-03T12:05:25.173Z,1.58
2022-12-03T12:07:54.008Z,1.54
2022-12-03T12:10:41.036Z,1.58
2022-12-03T12:13:27.640Z,1.67
2022-12-03T12:15:54.919Z,1.51
2022-12-03T12:18:43.092Z,1.68
2022-12-03T12:21:47.958Z,1.54
2022-12-03T12:24:40.595Z,1.66
2022-12-03T12:27:11.625Z,1.62
2022-12-03T12:29:41.489Z,1.53
2022-12-03T12:32:12.313Z,1.70
2022-12-03T12:34:51.148Z,1.79
2022-12-03T12:37:23.380Z,1.69
2022-12-03T12:39:54.856Z,1.50
2022-12-03T12:42:35.076Z,1.69
2022-12-03T12:45:07.521Z,1.77
2022-12-03T12:47:36.136Z,1.80
2022-12-03T12:50:10.539Z,1.85
2022-12-03T12:52:49.639Z,1.86
2022-12-03T12:55:17.342Z,1.91
2022-12-03T12:57:45.137Z,1.92
2022-12-03T13:00:20.638Z,1.89
2022-12-03T13:02:59.697Z,1.97
2022-12-03T13:05:32.988Z,2.14
2022-12-03T13:07:59.537Z,2.09
2022-12-03T13:10:35.100Z,2.12
2022-12-03T13:13:30.842Z,2.20
2022-12-03T13:16:01.343Z,2.26
2022-12-03T13:18:38.560Z,2.27
2022-12-03T13:21:13.339Z,2.12
2022-12-03T13:23:40.539Z,2.12
2022-12-03T13:26:38.593Z,2.22
2022-12-03T13:29:15.553Z,2.04
2022-12-03T13:31:48.667Z,2.02
2022-12-03T13:34:20.796Z,2.16
2022-12-03T13:36:53.548Z,2.05
2022-12-03T13:39:30.815Z,2.06
2022-12-03T13:42:24.056Z,1.95
2022-12-03T13:44:53.072Z,2.00
2022-12-03T13:47:22.069Z,1.94
2022-12-03T13:49:58.214Z,1.99
2022-12-03T13:52:25.973Z,1.90
2022-12-03T13:54:55.838Z,2.01
2022-12-03T13:57:23.024Z,1.91
2022-12-03T13:59:49.655Z,2.05
2022-12-03T14:02:16.200Z,1.99
2022-12-03T14:04:42.724Z,1.80
2022-12-03T14:07:09.154Z,1.90
2022-12-03T14:09:35.587Z,2.01
2022-12-03T14:12:22.154Z,1.89
2022-12-03T14:14:49.433Z,2.03
2022-12-03T14:17:15.921Z,2.08
2022-12-03T14:19:42.358Z,2.08
2022-12-03T14:22:09.923Z,2.06
2022-12-03T14:24:37.507Z,1.84
2022-12-03T14:27:04.020Z,1.89
2022-12-03T14:29:30.611Z,1.91
2022-12-03T14:31:57.220Z,2.06
2022-12-03T14:34:25.045Z,1.84
2022-12-03T14:36:51.476Z,1.87
2022-12-03T14:39:17.907Z,1.84
2022-12-03T14:42:03.034Z,1.95
2022-12-03T14:44:29.466Z,2.09
2022-12-03T14:46:57.468Z,1.95
2022-12-03T14:49:24.640Z,1.78
2022-12-03T14:51:51.069Z,1.77
2022-12-03T14:54:18.807Z,1.71
2022-12-03T14:56:45.215Z,1.87
2022-12-03T14:59:11.635Z,1.94
2022-12-03T15:01:38.172Z,1.79
2022-12-03T15:04:05.615Z,1.79
2022-12-03T15:06:32.420Z,2.00
2022-12-03T15:08:58.873Z,1.97
2022-12-03T15:11:25.297Z,1.97
2022-12-03T15:13:51.828Z,1.90
2022-12-03T15:16:18.152Z,2.09
2022-12-03T15:18:45.420Z,1.91
2022-12-03T15:21:11.775Z,1.94
2022-12-03T15:23:38.623Z,1.82
2022-12-03T15:26:05.233Z,1.92
2022-12-03T15:28:31.575Z,2.00
2022-12-03T15:30:58.063Z,1.75
2022-12-03T15:33:24.629Z,1.96
2022-12-03T15:35:51.583Z,1.79
2022-12-03T15:38:18.100Z,1.99
2022-12-03T15:40:44.797Z,1.82
2022-12-03T15:43:11.708Z,1.73
2022-12-03T15:45:38.217Z,1.87
2022-12-03T15:48:05.370Z,1.80
2022-12-03T15:50:35.776Z,1.82
2022-12-03T15:53:06.338Z,1.81
2022-12-03T15:55:32.893Z,1.82
2022-12-03T15:57:59.244Z,1.82
2022-12-03T16:00:25.644Z,1.82
2022-12-03T16:02:53.053Z,1.80
2022-12-03T16:05:20.110Z,1.78
2022-12-03T16:07:46.624Z,1.90
2022-12-03T16:10:13.510Z,1.99
2022-12-03T16:12:40.229Z,1.92
2022-12-03T16:15:06.896Z,1.90
2022-12-03T16:17:33.725Z,1.89
2022-12-03T16:20:00.240Z,1.73
2022-12-03T16:22:27.143Z,1.84
2022-12-03T16:24:53.708Z,1.79
2022-12-03T16:27:25.317Z,1.86
2022-12-03T16:29:52.763Z,1.72
2022-12-03T16:32:20.119Z,1.81
2022-12-03T16:34:46.659Z,1.75
2022-12-03T16:37:13.205Z,1.73
2022-12-03T16:39:47.418Z,1.80
2022-12-03T16:42:17.140Z,1.75
2022-12-03T16:45:04.246Z,1.71
2022-12-03T16:47:34.164Z,1.83
2022-12-03T16:50:02.334Z,1.72
2022-12-03T16:52:28.994Z,1.66
2022-12-03T16:54:55.407Z,1.73
2022-12-03T16:57:21.807Z,1.66
2022-12-03T16:59:48.475Z,1.62
2022-12-03T17:02:14.953Z,1.62
2022-12-03T17:04:43.005Z,1.66
2022-12-03T17:07:09.698Z,1.78
2022-12-03T17:09:36.161Z,1.71
2022-12-03T17:12:02.664Z,1.81
2022-12-03T17:14:33.222Z,1.70
2022-12-03T17:17:00.309Z,1.73
2022-12-03T17:19:26.864Z,1.68
2022-12-03T17:21:54.070Z,1.69
2022-12-03T17:24:21.405Z,1.63
2022-12-03T17:26:48.337Z,1.57
2022-12-03T17:29:15.106Z,1.56
2022-12-03T17:31:42.910Z,1.54
2022-12-03T17:34:10.221Z,1.52
2022-12-03T17:36:37.690Z,1.50
2022-12-03T17:39:04.264Z,1.54
2022-12-03T17:41:31.537Z,1.50
2022-12-03T17:43:57.931Z,1.52
2022-12-03T17:46:24.699Z,1.56
2022-12-03T17:48:52.050Z,1.58
2022-12-03T17:51:20.747Z,1.52
2022-12-03T17:53:47.159Z,1.47
2022-12-03T17:56:13.668Z,1.56
2022-12-03T17:58:40.090Z,1.54
2022-12-03T18:01:08.490Z,1.51
2022-12-03T18:03:35.029Z,1.47
2022-12-03T18:06:01.483Z,1.45
2022-12-03T18:08:28.168Z,1.42
2022-12-03T18:10:54.647Z,1.44
2022-12-03T18:13:21.125Z,1.35
2022-12-03T18:15:47.930Z,1.43
2022-12-03T18:18:14.376Z,1.44
2022-12-03T18:20:40.861Z,1.39
2022-12-03T18:23:07.310Z,1.37
2022-12-03T18:25:33.759Z,1.41
2022-12-03T18:28:00.221Z,1.35
2022-12-03T18:30:26.672Z,1.37
2022-12-03T18:32:53.153Z,1.40
2022-12-03T18:35:20.612Z,1.34
2022-12-03T18:37:49.262Z,1.25
2022-12-03T18:40:23.612Z,1.17
2022-12-03T18:42:50.342Z,1.09
2022-12-03T18:45:16.815Z,1.14
2022-12-03T18:47:43.660Z,1.07
2022-12-03T18:50:11.471Z,1.00
2022-12-03T18:52:38.346Z,0.95
2022-12-03T18:55:06.118Z,0.95
2022-12-03T18:57:32.579Z,0.93
2022-12-03T18:59:59.405Z,0.82
2022-12-03T19:02:54.190Z,0.83
2022-12-03T19:05:12.604Z,0.77
2022-12-03T19:07:39.011Z,0.82
2022-12-03T19:10:06.872Z,0.79
2022-12-03T19:12:33.378Z,0.77
2022-12-03T19:14:59.866Z,0.79
2022-12-03T19:17:27.243Z,0.79
2022-12-03T19:19:54.714Z,0.77
2022-12-03T19:22:21.699Z,0.65
2022-12-03T19:24:48.213Z,0.64
2022-12-03T19:27:15.056Z,0.69
2022-12-03T19:29:41.825Z,0.64
2022-12-03T19:32:08.882Z,0.62
2022-12-03T19:34:35.748Z,0.62
2022-12-03T19:37:02.191Z,0.52
2022-12-03T19:39:28.708Z,0.50
2022-12-03T19:41:55.161Z,0.51
2022-12-03T19:44:21.734Z,0.53
2022-12-03T19:46:51.100Z,0.55
2022-12-03T19:49:20.845Z,0.49
2022-12-03T19:51:47.584Z,0.46
2022-12-03T19:54:14.916Z,0.44
2022-12-03T19:56:41.495Z,0.38
2022-12-03T19:59:08.109Z,0.47
2022-12-03T20:01:36.349Z,0.37
2022-12-03T20:04:04.035Z,0.41
2022-12-03T20:06:33.924Z,0.41
2022-12-03T20:09:03.758Z,0.39
2022-12-03T20:11:33.134Z,0.33
2022-12-03T20:14:03.257Z,0.37
2022-12-03T20:16:30.684Z,0.38
2022-12-03T20:18:59.930Z,0.40
2022-12-03T20:21:30.045Z,0.42
2022-12-03T20:23:56.548Z,0.32
2022-12-03T20:26:23.965Z,0.32
2022-12-03T20:28:52.600Z,0.27
2022-12-03T20:31:21.632Z,0.23
2022-12-03T20:33:50.765Z,0.22
2022-12-03T20:36:19.588Z,0.20
2022-12-03T20:38:46.996Z,0.26
2022-12-03T20:41:21.080Z,0.16
2022-12-03T20:43:48.306Z,0.11
2022-12-03T20:46:16.206Z,0.06
2022-12-03T20:48:44.418Z,0.11
2022-12-03T20:51:13.899Z,0.05
2022-12-03T20:53:40.835Z,-0.01
2022-12-03T20:56:08.551Z,0.06
2022-12-03T20:58:35.835Z,-0.04
2022-12-03T21:01:15.963Z,-0.05
2022-12-03T21:03:43.947Z,-0.13
2022-12-03T21:06:11.237Z,-0.05
2022-12-03T21:08:42.619Z,-0.12
2022-12-03T21:11:14.603Z,-0.22
2022-12-03T21:13:43.505Z,-0.23
2022-12-03T21:16:13.271Z,-0.23
2022-12-03T21:18:39.929Z,-0.29
2022-12-03T21:21:06.792Z,-0.31
2022-12-03T21:23:33.719Z,-0.34
2022-12-03T21:26:15.439Z,-0.41
2022-12-03T21:28:48.910Z,-0.52
2022-12-03T21:31:25.680Z,-0.43
2022-12-03T21:33:56.716Z,-0.55
2022-12-03T21:36:24.335Z,-0.43
2022-12-03T21:38:51.073Z,-0.51
2022-12-03T21:41:19.306Z,-0.48
2022-12-03T21:43:46.414Z,-0.45
2022-12-03T21:47:12.530Z,-0.51
2022-12-03T21:49:03.528Z,-0.58
2022-12-03T21:51:29.980Z,-0.55
2022-12-03T21:53:56.503Z,-0.49
2022-12-03T21:56:22.986Z,-0.54
2022-12-03T21:58:49.453Z,-0.65
2022-12-03T22:01:22.052Z,-0.56
2022-12-03T22:03:49.242Z,-0.60
2022-12-03T22:06:16.772Z,-0.60
2022-12-03T22:08:43.979Z,-0.65
2022-12-03T22:11:13.290Z,-0.67
2022-12-03T22:13:40.225Z,-0.74
2022-12-03T22:16:09.380Z,-0.78
2022-12-03T22:18:36.368Z,-0.76
2022-12-03T22:21:08.415Z,-0.76
2022-12-03T22:23:35.047Z,-0.80
2022-12-03T22:26:06.422Z,-0.83
2022-12-03T22:28:33.799Z,-0.81
2022-12-03T22:31:05.943Z,-0.85
2022-12-03T22:33:32.463Z,-0.88
2022-12-03T22:36:04.967Z,-0.87
2022-12-03T22:38:32.410Z,-0.97
2022-12-03T22:40:59.205Z,-0.96
2022-12-03T22:43:26.082Z,-0.99
2022-12-03T22:45:56.487Z,-0.94
2022-12-03T22:48:24.194Z,-0.91
2022-12-03T22:50:52.086Z,-0.94
2022-12-03T22:53:20.265Z,-0.95
2022-12-03T22:55:58.385Z,-0.96
2022-12-03T22:58:26.364Z,-0.97
2022-12-03T23:00:52.922Z,-1.08
2022-12-03T23:03:19.373Z,-1.02
2022-12-03T23:05:46.066Z,-1.13
2022-12-03T23:08:15.122Z,-1.12
2022-12-03T23:10:43.833Z,-1.09
2022-12-03T23:13:11.537Z,-1.17
2022-12-03T23:15:43.050Z,-1.29
2022-12-03T23:18:09.704Z,-1.20
2022-12-03T23:20:45.094Z,-1.29
2022-12-03T23:23:14.464Z,-1.36
2022-12-03T23:25:41.396Z,-1.44
2022-12-03T23:28:08.671Z,-1.36
2022-12-03T23:30:37.128Z,-1.40
2022-12-03T23:33:04.872Z,-1.54
2022-12-03T23:35:32.220Z,-1.60
2022-12-03T23:37:58.705Z,-1.50
2022-12-03T23:40:25.135Z,-1.54
2022-12-03T23:42:51.588Z,-1.52
2022-12-03T23:45:18.033Z,-1.43
2022-12-03T23:47:44.666Z,-1.46
2022-12-03T23:50:11.738Z,-1.57
2022-12-03T23:52:38.366Z,-1.46
2022-12-03T23:55:05.327Z,-1.44
2022-12-03T23:57:32.295Z,-1.34
2022-12-03T23:59:58.806Z,-1.40
